sensor_id;sensor_type;location;lat;lon;timestamp;pressure;altitude;pressure_sealevel;temperature;humidity
62057;BME280;48016;50.284;18.860;2023-02-12T00:01:16;99386.91;;;3.50;89.93
62057;BME280;48016;50.284;18.860;2023-02-12T00:03:43;99392.68;;;3.51;89.79
62057;BME280;48016;50.284;18.860;2023-02-12T00:06:10;99396.05;;;3.51;89.70
62057;BME280;48016;50.284;18.860;2023-02-12T00:08:37;99401.04;;;3.51;89.76
62057;BME280;48016;50.284;18.860;2023-02-12T00:11:14;99401.64;;;3.54;89.70
62057;BME280;48016;50.284;18.860;2023-02-12T00:13:42;99401.65;;;3.54;89.86
62057;BME280;48016;50.284;18.860;2023-02-12T00:16:11;99401.98;;;3.54;89.86
62057;BME280;48016;50.284;18.860;2023-02-12T00:18:38;99404.02;;;3.55;89.73
62057;BME280;48016;50.284;18.860;2023-02-12T00:21:05;99402.36;;;3.57;89.63
62057;BME280;48016;50.284;18.860;2023-02-12T00:23:35;99403.42;;;3.57;89.48
62057;BME280;48016;50.284;18.860;2023-02-12T00:26:10;99406.15;;;3.58;89.58
62057;BME280;48016;50.284;18.860;2023-02-12T00:28:37;99406.92;;;3.57;89.58
62057;BME280;48016;50.284;18.860;2023-02-12T00:31:15;99411.29;;;3.58;89.69
62057;BME280;48016;50.284;18.860;2023-02-12T00:33:42;99414.40;;;3.59;89.66
62057;BME280;48016;50.284;18.860;2023-02-12T00:36:13;99416.72;;;3.59;89.58
62057;BME280;48016;50.284;18.860;2023-02-12T00:38:40;99417.72;;;3.58;89.36
62057;BME280;48016;50.284;18.860;2023-02-12T00:41:07;99416.77;;;3.57;89.65
62057;BME280;48016;50.284;18.860;2023-02-12T00:43:34;99412.46;;;3.56;89.68
62057;BME280;48016;50.284;18.860;2023-02-12T00:46:02;99411.45;;;3.55;89.71
62057;BME280;48016;50.284;18.860;2023-02-12T00:48:30;99412.60;;;3.55;89.71
62057;BME280;48016;50.284;18.860;2023-02-12T00:50:57;99417.20;;;3.55;89.75
62057;BME280;48016;50.284;18.860;2023-02-12T00:53:24;99417.67;;;3.55;89.80
62057;BME280;48016;50.284;18.860;2023-02-12T00:55:51;99420.45;;;3.56;89.83
62057;BME280;48016;50.284;18.860;2023-02-12T00:58:17;99425.40;;;3.56;89.60
62057;BME280;48016;50.284;18.860;2023-02-12T01:00:45;99428.48;;;3.56;89.63
62057;BME280;48016;50.284;18.860;2023-02-12T01:03:11;99431.64;;;3.56;89.70
62057;BME280;48016;50.284;18.860;2023-02-12T01:05:38;99432.75;;;3.56;89.66
62057;BME280;48016;50.284;18.860;2023-02-12T01:08:05;99429.78;;;3.57;89.75
62057;BME280;48016;50.284;18.860;2023-02-12T01:10:32;99429.72;;;3.57;89.80
62057;BME280;48016;50.284;18.860;2023-02-12T01:12:59;99427.67;;;3.58;89.80
62057;BME280;48016;50.284;18.860;2023-02-12T01:15:25;99431.63;;;3.58;89.73
62057;BME280;48016;50.284;18.860;2023-02-12T01:17:53;99432.23;;;3.57;89.74
62057;BME280;48016;50.284;18.860;2023-02-12T01:20:21;99431.52;;;3.57;89.66
62057;BME280;48016;50.284;18.860;2023-02-12T01:22:49;99435.30;;;3.59;89.75
62057;BME280;48016;50.284;18.860;2023-02-12T01:25:16;99435.99;;;3.59;89.75
62057;BME280;48016;50.284;18.860;2023-02-12T01:27:43;99444.00;;;3.60;89.72
62057;BME280;48016;50.284;18.860;2023-02-12T01:30:12;99444.72;;;3.61;89.71
62057;BME280;48016;50.284;18.860;2023-02-12T01:32:39;99447.72;;;3.62;89.66
62057;BME280;48016;50.284;18.860;2023-02-12T01:35:07;99448.86;;;3.63;89.89
62057;BME280;48016;50.284;18.860;2023-02-12T01:37:36;99448.77;;;3.64;89.77
62057;BME280;48016;50.284;18.860;2023-02-12T01:40:04;99451.83;;;3.63;89.64
62057;BME280;48016;50.284;18.860;2023-02-12T01:42:31;99455.84;;;3.62;89.75
62057;BME280;48016;50.284;18.860;2023-02-12T01:47:41;99460.79;;;3.63;89.70
62057;BME280;48016;50.284;18.860;2023-02-12T01:50:12;99462.27;;;3.65;89.82
62057;BME280;48016;50.284;18.860;2023-02-12T01:52:43;99460.58;;;3.65;89.71
62057;BME280;48016;50.284;18.860;2023-02-12T01:55:12;99464.08;;;3.66;89.75
62057;BME280;48016;50.284;18.860;2023-02-12T01:57:42;99465.96;;;3.65;89.74
62057;BME280;48016;50.284;18.860;2023-02-12T02:00:22;99468.93;;;3.63;89.65
62057;BME280;48016;50.284;18.860;2023-02-12T02:02:55;99480.48;;;3.64;89.78
62057;BME280;48016;50.284;18.860;2023-02-12T02:05:30;99475.85;;;3.64;89.86
62057;BME280;48016;50.284;18.860;2023-02-12T02:07:59;99475.14;;;3.66;89.87
62057;BME280;48016;50.284;18.860;2023-02-12T02:10:26;99480.33;;;3.66;89.76
62057;BME280;48016;50.284;18.860;2023-02-12T02:12:54;99481.25;;;3.62;89.73
62057;BME280;48016;50.284;18.860;2023-02-12T02:15:44;99477.98;;;3.59;89.96
62057;BME280;48016;50.284;18.860;2023-02-12T02:18:20;99481.77;;;3.60;89.90
62057;BME280;48016;50.284;18.860;2023-02-12T02:34:36;99494.34;;;3.55;90.24
62057;BME280;48016;50.284;18.860;2023-02-12T02:37:20;99495.29;;;3.56;90.25
62057;BME280;48016;50.284;18.860;2023-02-12T02:39:56;99494.88;;;3.57;90.16
62057;BME280;48016;50.284;18.860;2023-02-12T02:42:41;99509.16;;;3.59;90.29
62057;BME280;48016;50.284;18.860;2023-02-12T02:45:14;99516.55;;;3.62;90.12
62057;BME280;48016;50.284;18.860;2023-02-12T02:47:58;99525.32;;;3.61;90.10
62057;BME280;48016;50.284;18.860;2023-02-12T02:50:27;99528.30;;;3.60;90.04
62057;BME280;48016;50.284;18.860;2023-02-12T02:53:05;99527.91;;;3.59;90.02
62057;BME280;48016;50.284;18.860;2023-02-12T02:55:42;99521.08;;;3.57;89.93
62057;BME280;48016;50.284;18.860;2023-02-12T02:58:14;99518.09;;;3.55;89.93
62057;BME280;48016;50.284;18.860;2023-02-12T03:00:59;99524.59;;;3.53;89.96
62057;BME280;48016;50.284;18.860;2023-02-12T03:03:52;99526.75;;;3.50;90.01
62057;BME280;48016;50.284;18.860;2023-02-12T03:06:28;99535.76;;;3.47;90.11
62057;BME280;48016;50.284;18.860;2023-02-12T03:09:08;99541.52;;;3.47;90.22
62057;BME280;48016;50.284;18.860;2023-02-12T03:11:39;99538.95;;;3.46;90.20
62057;BME280;48016;50.284;18.860;2023-02-12T03:17:29;99549.24;;;3.46;90.11
62057;BME280;48016;50.284;18.860;2023-02-12T03:20:05;99558.53;;;3.44;90.10
62057;BME280;48016;50.284;18.860;2023-02-12T03:22:35;99563.91;;;3.44;90.22
62057;BME280;48016;50.284;18.860;2023-02-12T03:25:10;99573.00;;;3.44;90.15
62057;BME280;48016;50.284;18.860;2023-02-12T03:27:46;99580.65;;;3.46;90.11
62057;BME280;48016;50.284;18.860;2023-02-12T03:30:15;99584.89;;;3.48;90.16
62057;BME280;48016;50.284;18.860;2023-02-12T03:33:00;99587.06;;;3.50;90.06
62057;BME280;48016;50.284;18.860;2023-02-12T03:35:40;99582.78;;;3.52;90.01
62057;BME280;48016;50.284;18.860;2023-02-12T03:38:09;99585.36;;;3.53;89.98
62057;BME280;48016;50.284;18.860;2023-02-12T03:40:46;99594.48;;;3.52;90.09
62057;BME280;48016;50.284;18.860;2023-02-12T03:45:51;99616.94;;;3.53;89.90
62057;BME280;48016;50.284;18.860;2023-02-12T03:48:27;99613.17;;;3.51;89.79
62057;BME280;48016;50.284;18.860;2023-02-12T03:51:01;99611.94;;;3.51;89.84
62057;BME280;48016;50.284;18.860;2023-02-12T03:53:30;99617.69;;;3.51;89.86
62057;BME280;48016;50.284;18.860;2023-02-12T03:56:12;99622.02;;;3.51;89.80
62057;BME280;48016;50.284;18.860;2023-02-12T03:58:42;99625.56;;;3.52;89.82
62057;BME280;48016;50.284;18.860;2023-02-12T04:01:11;99630.07;;;3.53;89.79
62057;BME280;48016;50.284;18.860;2023-02-12T04:03:39;99635.09;;;3.51;89.72
62057;BME280;48016;50.284;18.860;2023-02-12T04:06:21;99634.20;;;3.51;89.78
62057;BME280;48016;50.284;18.860;2023-02-12T04:08:49;99638.45;;;3.50;89.62
62057;BME280;48016;50.284;18.860;2023-02-12T04:11:24;99646.84;;;3.48;89.69
62057;BME280;48016;50.284;18.860;2023-02-12T04:14:14;99660.33;;;3.48;89.58
62057;BME280;48016;50.284;18.860;2023-02-12T04:19:16;99664.91;;;3.45;89.60
62057;BME280;48016;50.284;18.860;2023-02-12T04:24:48;99660.79;;;3.42;89.44
62057;BME280;48016;50.284;18.860;2023-02-12T04:27:23;99661.59;;;3.41;89.54
62057;BME280;48016;50.284;18.860;2023-02-12T04:32:33;99668.67;;;3.40;89.40
62057;BME280;48016;50.284;18.860;2023-02-12T04:38:09;99679.30;;;3.39;89.52
62057;BME280;48016;50.284;18.860;2023-02-12T04:40:40;99677.48;;;3.39;89.63
62057;BME280;48016;50.284;18.860;2023-02-12T04:43:08;99683.46;;;3.38;89.59
62057;BME280;48016;50.284;18.860;2023-02-12T04:45:36;99683.86;;;3.38;89.56
62057;BME280;48016;50.284;18.860;2023-02-12T04:48:04;99685.23;;;3.38;89.49
62057;BME280;48016;50.284;18.860;2023-02-12T04:50:40;99683.50;;;3.38;89.58
62057;BME280;48016;50.284;18.860;2023-02-12T04:53:08;99689.27;;;3.37;89.37
62057;BME280;48016;50.284;18.860;2023-02-12T04:55:35;99688.81;;;3.37;89.49
62057;BME280;48016;50.284;18.860;2023-02-12T04:58:02;99691.90;;;3.36;89.46
62057;BME280;48016;50.284;18.860;2023-02-12T05:00:29;99698.77;;;3.37;89.46
62057;BME280;48016;50.284;18.860;2023-02-12T05:02:58;99706.73;;;3.34;89.35
62057;BME280;48016;50.284;18.860;2023-02-12T05:05:25;99713.64;;;3.33;89.44
62057;BME280;48016;50.284;18.860;2023-02-12T05:07:52;99718.08;;;3.33;89.53
62057;BME280;48016;50.284;18.860;2023-02-12T05:10:19;99718.41;;;3.33;89.50
62057;BME280;48016;50.284;18.860;2023-02-12T05:12:46;99721.28;;;3.33;89.51
62057;BME280;48016;50.284;18.860;2023-02-12T05:15:13;99724.02;;;3.33;89.45
62057;BME280;48016;50.284;18.860;2023-02-12T05:17:39;99720.58;;;3.33;89.53
62057;BME280;48016;50.284;18.860;2023-02-12T05:20:07;99719.59;;;3.33;89.40
62057;BME280;48016;50.284;18.860;2023-02-12T05:22:33;99725.48;;;3.32;89.47
62057;BME280;48016;50.284;18.860;2023-02-12T05:25:00;99728.30;;;3.33;89.68
62057;BME280;48016;50.284;18.860;2023-02-12T05:27:27;99731.96;;;3.33;89.60
62057;BME280;48016;50.284;18.860;2023-02-12T05:29:53;99739.46;;;3.33;89.55
62057;BME280;48016;50.284;18.860;2023-02-12T05:32:22;99740.59;;;3.33;89.46
62057;BME280;48016;50.284;18.860;2023-02-12T05:34:49;99747.44;;;3.32;89.40
62057;BME280;48016;50.284;18.860;2023-02-12T05:37:16;99747.38;;;3.31;89.46
62057;BME280;48016;50.284;18.860;2023-02-12T05:39:43;99747.12;;;3.29;89.48
62057;BME280;48016;50.284;18.860;2023-02-12T05:42:09;99754.16;;;3.28;89.61
62057;BME280;48016;50.284;18.860;2023-02-12T05:44:36;99754.85;;;3.27;89.43
62057;BME280;48016;50.284;18.860;2023-02-12T05:47:03;99759.18;;;3.26;89.45
62057;BME280;48016;50.284;18.860;2023-02-12T05:49:30;99765.52;;;3.24;89.55
62057;BME280;48016;50.284;18.860;2023-02-12T05:51:56;99769.77;;;3.22;89.68
62057;BME280;48016;50.284;18.860;2023-02-12T05:54:23;99774.23;;;3.22;89.57
62057;BME280;48016;50.284;18.860;2023-02-12T05:56:50;99779.35;;;3.23;89.60
62057;BME280;48016;50.284;18.860;2023-02-12T05:59:21;99785.77;;;3.23;89.51
62057;BME280;48016;50.284;18.860;2023-02-12T06:01:50;99788.48;;;3.22;89.51
62057;BME280;48016;50.284;18.860;2023-02-12T06:04:19;99793.11;;;3.22;89.50
62057;BME280;48016;50.284;18.860;2023-02-12T06:06:46;99794.48;;;3.23;89.53
62057;BME280;48016;50.284;18.860;2023-02-12T06:09:13;99798.96;;;3.22;89.34
62057;BME280;48016;50.284;18.860;2023-02-12T06:11:40;99800.67;;;3.22;89.33
62057;BME280;48016;50.284;18.860;2023-02-12T06:14:11;99801.64;;;3.19;89.37
62057;BME280;48016;50.284;18.860;2023-02-12T06:16:39;99811.57;;;3.16;89.22
62057;BME280;48016;50.284;18.860;2023-02-12T06:19:05;99819.05;;;3.14;89.29
62057;BME280;48016;50.284;18.860;2023-02-12T06:21:33;99828.67;;;3.14;89.37
62057;BME280;48016;50.284;18.860;2023-02-12T06:23:59;99833.90;;;3.16;89.34
62057;BME280;48016;50.284;18.860;2023-02-12T06:26:26;99838.96;;;3.19;89.39
62057;BME280;48016;50.284;18.860;2023-02-12T06:28:53;99837.52;;;3.20;89.30
62057;BME280;48016;50.284;18.860;2023-02-12T06:31:28;99838.45;;;3.22;89.17
62057;BME280;48016;50.284;18.860;2023-02-12T06:33:59;99844.91;;;3.19;88.95
62057;BME280;48016;50.284;18.860;2023-02-12T06:36:27;99849.98;;;3.13;89.03
62057;BME280;48016;50.284;18.860;2023-02-12T06:38:54;99854.39;;;3.07;88.87
62057;BME280;48016;50.284;18.860;2023-02-12T06:41:21;99857.67;;;3.02;88.70
62057;BME280;48016;50.284;18.860;2023-02-12T06:43:48;99860.16;;;2.94;88.52
62057;BME280;48016;50.284;18.860;2023-02-12T06:46:15;99859.22;;;2.80;88.38
62057;BME280;48016;50.284;18.860;2023-02-12T06:48:41;99864.42;;;2.73;88.18
62057;BME280;48016;50.284;18.860;2023-02-12T06:51:14;99863.55;;;2.71;88.20
62057;BME280;48016;50.284;18.860;2023-02-12T06:53:42;99859.85;;;2.77;88.17
62057;BME280;48016;50.284;18.860;2023-02-12T06:56:11;99863.52;;;2.84;88.08
62057;BME280;48016;50.284;18.860;2023-02-12T06:58:40;99867.77;;;2.86;87.95
62057;BME280;48016;50.284;18.860;2023-02-12T07:01:10;99871.81;;;2.95;88.09
62057;BME280;48016;50.284;18.860;2023-02-12T07:03:40;99879.30;;;3.03;87.74
62057;BME280;48016;50.284;18.860;2023-02-12T07:06:08;99882.49;;;3.05;87.34
62057;BME280;48016;50.284;18.860;2023-02-12T07:08:35;99882.70;;;3.06;87.51
62057;BME280;48016;50.284;18.860;2023-02-12T07:11:04;99886.23;;;3.11;86.88
62057;BME280;48016;50.284;18.860;2023-02-12T07:13:32;99882.27;;;3.10;86.64
62057;BME280;48016;50.284;18.860;2023-02-12T07:16:09;99884.09;;;3.08;86.80
62057;BME280;48016;50.284;18.860;2023-02-12T07:18:36;99891.62;;;3.01;86.19
62057;BME280;48016;50.284;18.860;2023-02-12T07:21:04;99893.64;;;2.81;85.63
62057;BME280;48016;50.284;18.860;2023-02-12T07:23:31;99899.80;;;2.65;85.85
62057;BME280;48016;50.284;18.860;2023-02-12T07:26:12;99903.79;;;2.49;85.66
62057;BME280;48016;50.284;18.860;2023-02-12T07:28:39;99907.34;;;2.44;86.03
62057;BME280;48016;50.284;18.860;2023-02-12T07:31:08;99914.17;;;2.40;85.45
62057;BME280;48016;50.284;18.860;2023-02-12T07:33:35;99911.57;;;2.36;85.06
62057;BME280;48016;50.284;18.860;2023-02-12T07:36:05;99917.09;;;2.36;84.91
62057;BME280;48016;50.284;18.860;2023-02-12T07:38:32;99921.65;;;2.44;84.72
62057;BME280;48016;50.284;18.860;2023-02-12T07:41:22;99924.65;;;2.54;84.42
62057;BME280;48016;50.284;18.860;2023-02-12T07:43:54;99929.40;;;2.71;84.20
62057;BME280;48016;50.284;18.860;2023-02-12T07:46:23;99930.45;;;2.90;84.37
62057;BME280;48016;50.284;18.860;2023-02-12T07:48:57;99937.40;;;3.08;83.56
62057;BME280;48016;50.284;18.860;2023-02-12T07:51:25;99940.91;;;3.14;83.13
62057;BME280;48016;50.284;18.860;2023-02-12T07:53:54;99942.55;;;3.16;83.19
62057;BME280;48016;50.284;18.860;2023-02-12T07:56:24;99941.42;;;3.26;83.20
62057;BME280;48016;50.284;18.860;2023-02-12T07:58:52;99939.60;;;3.40;82.54
62057;BME280;48016;50.284;18.860;2023-02-12T08:01:28;99938.54;;;3.48;82.37
62057;BME280;48016;50.284;18.860;2023-02-12T08:04:00;99942.15;;;3.58;80.72
62057;BME280;48016;50.284;18.860;2023-02-12T08:06:29;99938.66;;;3.44;80.10
62057;BME280;48016;50.284;18.860;2023-02-12T08:08:58;99934.00;;;3.29;80.58
62057;BME280;48016;50.284;18.860;2023-02-12T08:11:26;99949.80;;;3.23;80.00
62057;BME280;48016;50.284;18.860;2023-02-12T08:13:57;99961.08;;;3.29;80.69
62057;BME280;48016;50.284;18.860;2023-02-12T08:16:25;99965.64;;;3.27;80.14
62057;BME280;48016;50.284;18.860;2023-02-12T08:18:52;99966.67;;;3.17;80.31
62057;BME280;48016;50.284;18.860;2023-02-12T08:21:23;99969.66;;;3.19;79.54
62057;BME280;48016;50.284;18.860;2023-02-12T08:23:50;99975.61;;;3.13;79.44
62057;BME280;48016;50.284;18.860;2023-02-12T08:26:20;99979.34;;;3.10;79.40
62057;BME280;48016;50.284;18.860;2023-02-12T08:28:50;99984.69;;;3.15;79.36
62057;BME280;48016;50.284;18.860;2023-02-12T08:31:24;99985.27;;;3.27;78.81
62057;BME280;48016;50.284;18.860;2023-02-12T08:33:52;99986.25;;;3.30;78.55
62057;BME280;48016;50.284;18.860;2023-02-12T08:36:22;99988.80;;;3.25;77.95
62057;BME280;48016;50.284;18.860;2023-02-12T08:38:49;99986.05;;;3.19;77.90
62057;BME280;48016;50.284;18.860;2023-02-12T08:41:22;99988.23;;;3.12;77.05
62057;BME280;48016;50.284;18.860;2023-02-12T08:43:51;99994.52;;;3.03;77.41
62057;BME280;48016;50.284;18.860;2023-02-12T08:46:21;99993.14;;;2.98;77.28
62057;BME280;48016;50.284;18.860;2023-02-12T08:48:57;99997.64;;;2.94;77.09
62057;BME280;48016;50.284;18.860;2023-02-12T08:51:28;99997.45;;;2.83;77.10
62057;BME280;48016;50.284;18.860;2023-02-12T08:53:58;99999.62;;;2.81;77.35
62057;BME280;48016;50.284;18.860;2023-02-12T08:56:27;100005.50;;;2.84;77.42
62057;BME280;48016;50.284;18.860;2023-02-12T08:58:56;100008.06;;;2.78;77.43
62057;BME280;48016;50.284;18.860;2023-02-12T09:01:25;100013.48;;;2.79;77.63
62057;BME280;48016;50.284;18.860;2023-02-12T09:03:52;100017.48;;;2.82;76.99
62057;BME280;48016;50.284;18.860;2023-02-12T09:06:21;100018.86;;;2.82;76.54
62057;BME280;48016;50.284;18.860;2023-02-12T09:08:49;100019.58;;;2.79;76.02
62057;BME280;48016;50.284;18.860;2023-02-12T09:11:19;100019.78;;;2.68;75.53
62057;BME280;48016;50.284;18.860;2023-02-12T09:13:46;100022.19;;;2.57;75.74
62057;BME280;48016;50.284;18.860;2023-02-12T09:16:13;100026.30;;;2.55;76.36
62057;BME280;48016;50.284;18.860;2023-02-12T09:18:40;100029.66;;;2.59;75.92
62057;BME280;48016;50.284;18.860;2023-02-12T09:21:12;100027.41;;;2.57;75.92
62057;BME280;48016;50.284;18.860;2023-02-12T09:23:41;100031.97;;;2.59;76.20
62057;BME280;48016;50.284;18.860;2023-02-12T09:26:11;100033.40;;;2.59;75.43
62057;BME280;48016;50.284;18.860;2023-02-12T09:28:38;100035.94;;;2.60;75.82
62057;BME280;48016;50.284;18.860;2023-02-12T09:31:14;100033.54;;;2.65;75.41
62057;BME280;48016;50.284;18.860;2023-02-12T09:33:41;100037.81;;;2.69;74.94
62057;BME280;48016;50.284;18.860;2023-02-12T09:36:12;100042.59;;;2.80;75.16
62057;BME280;48016;50.284;18.860;2023-02-12T09:38:40;100045.88;;;2.81;74.08
62057;BME280;48016;50.284;18.860;2023-02-12T09:41:36;100045.86;;;2.78;74.52
62057;BME280;48016;50.284;18.860;2023-02-12T09:44:21;100050.37;;;2.82;74.78
62057;BME280;48016;50.284;18.860;2023-02-12T09:47:07;100049.15;;;2.79;73.91
62057;BME280;48016;50.284;18.860;2023-02-12T09:52:25;100052.35;;;2.74;73.93
62057;BME280;48016;50.284;18.860;2023-02-12T09:54:53;100053.58;;;2.81;74.29
62057;BME280;48016;50.284;18.860;2023-02-12T09:59:57;100056.50;;;2.98;73.85
62057;BME280;48016;50.284;18.860;2023-02-12T10:02:24;100058.42;;;3.04;73.42
62057;BME280;48016;50.284;18.860;2023-02-12T10:04:52;100063.42;;;3.04;73.34
62057;BME280;48016;50.284;18.860;2023-02-12T10:07:39;100059.33;;;3.05;73.85
62057;BME280;48016;50.284;18.860;2023-02-12T10:15:38;100064.45;;;3.12;73.89
62057;BME280;48016;50.284;18.860;2023-02-12T10:18:31;100070.13;;;3.16;73.60
62057;BME280;48016;50.284;18.860;2023-02-12T10:23:41;100072.30;;;3.04;73.25
62057;BME280;48016;50.284;18.860;2023-02-12T10:26:25;100073.20;;;3.12;73.72
62057;BME280;48016;50.284;18.860;2023-02-12T10:28:58;100076.75;;;3.19;73.61
62057;BME280;48016;50.284;18.860;2023-02-12T10:31:32;100076.47;;;3.23;73.49
62057;BME280;48016;50.284;18.860;2023-02-12T10:34:12;100075.27;;;3.31;73.83
62057;BME280;48016;50.284;18.860;2023-02-12T10:36:47;100073.92;;;3.45;73.79
62057;BME280;48016;50.284;18.860;2023-02-12T10:39:24;100072.81;;;3.64;73.80
62057;BME280;48016;50.284;18.860;2023-02-12T10:44:33;100080.02;;;3.86;73.26
62057;BME280;48016;50.284;18.860;2023-02-12T10:47:00;100084.65;;;3.83;72.67
62057;BME280;48016;50.284;18.860;2023-02-12T10:49:30;100081.64;;;3.84;72.67
62057;BME280;48016;50.284;18.860;2023-02-12T10:52:08;100079.13;;;3.89;72.86
62057;BME280;48016;50.284;18.860;2023-02-12T10:57:27;100082.30;;;3.94;72.51
62057;BME280;48016;50.284;18.860;2023-02-12T10:59:56;100077.79;;;3.98;72.49
62057;BME280;48016;50.284;18.860;2023-02-12T11:03:19;100080.05;;;4.08;72.36
62057;BME280;48016;50.284;18.860;2023-02-12T11:05:45;100076.31;;;4.20;72.54
62057;BME280;48016;50.284;18.860;2023-02-12T11:08:38;100077.60;;;4.26;72.32
62057;BME280;48016;50.284;18.860;2023-02-12T11:11:15;100079.45;;;4.25;72.24
62057;BME280;48016;50.284;18.860;2023-02-12T11:13:58;100080.04;;;4.33;72.38
62057;BME280;48016;50.284;18.860;2023-02-12T11:16:52;100079.69;;;4.34;72.27
62057;BME280;48016;50.284;18.860;2023-02-12T11:21:48;100078.36;;;4.34;72.31
62057;BME280;48016;50.284;18.860;2023-02-12T11:26:51;100078.70;;;4.34;72.55
62057;BME280;48016;50.284;18.860;2023-02-12T11:29:24;100074.73;;;4.36;72.35
62057;BME280;48016;50.284;18.860;2023-02-12T11:32:02;100075.05;;;4.33;72.40
62057;BME280;48016;50.284;18.860;2023-02-12T11:34:30;100076.23;;;4.30;72.33
62057;BME280;48016;50.284;18.860;2023-02-12T11:36:57;100073.28;;;4.29;72.32
62057;BME280;48016;50.284;18.860;2023-02-12T11:39:35;100070.43;;;4.33;72.55
62057;BME280;48016;50.284;18.860;2023-02-12T11:42:17;100068.51;;;4.37;72.29
62057;BME280;48016;50.284;18.860;2023-02-12T11:45:14;100075.70;;;4.43;72.31
62057;BME280;48016;50.284;18.860;2023-02-12T11:47:42;100072.45;;;4.43;72.10
62057;BME280;48016;50.284;18.860;2023-02-12T11:52:49;100066.98;;;4.43;72.07
62057;BME280;48016;50.284;18.860;2023-02-12T11:55:22;100066.27;;;4.41;72.16
62057;BME280;48016;50.284;18.860;2023-02-12T11:57:52;100067.22;;;4.42;72.16
62057;BME280;48016;50.284;18.860;2023-02-12T12:00:34;100067.58;;;4.47;72.17
62057;BME280;48016;50.284;18.860;2023-02-12T12:03:14;100062.51;;;4.52;72.14
62057;BME280;48016;50.284;18.860;2023-02-12T12:05:48;100066.92;;;4.52;72.32
62057;BME280;48016;50.284;18.860;2023-02-12T12:08:35;100069.01;;;4.51;72.42
62057;BME280;48016;50.284;18.860;2023-02-12T12:11:09;100069.57;;;4.55;72.57
62057;BME280;48016;50.284;18.860;2023-02-12T12:14:04;100070.48;;;4.59;72.70
62057;BME280;48016;50.284;18.860;2023-02-12T12:16:35;100068.95;;;4.58;72.44
62057;BME280;48016;50.284;18.860;2023-02-12T12:20:03;100068.99;;;4.53;72.45
62057;BME280;48016;50.284;18.860;2023-02-12T12:22:45;100072.38;;;4.53;72.37
62057;BME280;48016;50.284;18.860;2023-02-12T12:25:35;100071.34;;;4.51;72.21
62057;BME280;48016;50.284;18.860;2023-02-12T12:28:10;100069.36;;;4.45;72.20
62057;BME280;48016;50.284;18.860;2023-02-12T12:33:49;100071.26;;;4.38;72.18
62057;BME280;48016;50.284;18.860;2023-02-12T12:39:23;100069.73;;;4.27;72.31
62057;BME280;48016;50.284;18.860;2023-02-12T12:50:13;100072.96;;;4.35;72.79
62057;BME280;48016;50.284;18.860;2023-02-12T13:06:59;100078.74;;;4.41;73.16
62057;BME280;48016;50.284;18.860;2023-02-12T13:09:58;100079.94;;;4.45;73.16
62057;BME280;48016;50.284;18.860;2023-02-12T13:28:51;100072.98;;;4.81;73.09
62057;BME280;48016;50.284;18.860;2023-02-12T13:31:22;100072.42;;;4.92;72.97
62057;BME280;48016;50.284;18.860;2023-02-12T13:33:54;100075.48;;;5.02;72.79
62057;BME280;48016;50.284;18.860;2023-02-12T13:36:22;100076.04;;;5.08;72.75
62057;BME280;48016;50.284;18.860;2023-02-12T13:41:39;100077.80;;;5.16;72.86
62057;BME280;48016;50.284;18.860;2023-02-12T13:44:19;100082.48;;;5.17;72.76
62057;BME280;48016;50.284;18.860;2023-02-12T13:50:06;100077.56;;;5.21;72.59
62057;BME280;48016;50.284;18.860;2023-02-12T13:52:48;100077.16;;;5.15;72.42
62057;BME280;48016;50.284;18.860;2023-02-12T13:55:33;100081.76;;;5.14;72.38
62057;BME280;48016;50.284;18.860;2023-02-12T13:58:38;100086.98;;;5.14;72.36
62057;BME280;48016;50.284;18.860;2023-02-12T14:01:35;100085.71;;;5.09;72.27
62057;BME280;48016;50.284;18.860;2023-02-12T14:07:07;100086.05;;;4.95;72.17
62057;BME280;48016;50.284;18.860;2023-02-12T14:09:42;100085.14;;;4.89;72.24
62057;BME280;48016;50.284;18.860;2023-02-12T14:15:08;100082.50;;;4.79;72.29
62057;BME280;48016;50.284;18.860;2023-02-12T14:30:35;100098.92;;;4.57;72.91
62057;BME280;48016;50.284;18.860;2023-02-12T14:35:36;100096.63;;;4.49;72.65
62057;BME280;48016;50.284;18.860;2023-02-12T14:49:41;100087.04;;;4.12;72.87
62057;BME280;48016;50.284;18.860;2023-02-12T14:59:47;100095.41;;;4.00;73.41
62057;BME280;48016;50.284;18.860;2023-02-12T15:02:25;100101.23;;;3.99;73.48
62057;BME280;48016;50.284;18.860;2023-02-12T15:04:57;100103.14;;;3.96;73.71
62057;BME280;48016;50.284;18.860;2023-02-12T15:07:57;100101.17;;;3.93;73.94
62057;BME280;48016;50.284;18.860;2023-02-12T15:10:35;100105.32;;;3.88;74.12
62057;BME280;48016;50.284;18.860;2023-02-12T15:13:44;100103.88;;;3.83;74.25
62057;BME280;48016;50.284;18.860;2023-02-12T15:16:23;100104.27;;;3.78;74.31
62057;BME280;48016;50.284;18.860;2023-02-12T15:19:00;100105.41;;;3.74;74.58
62057;BME280;48016;50.284;18.860;2023-02-12T15:21:30;100102.07;;;3.69;74.59
62057;BME280;48016;50.284;18.860;2023-02-12T15:24:05;100103.41;;;3.65;74.73
62057;BME280;48016;50.284;18.860;2023-02-12T15:26:38;100102.77;;;3.62;74.90
62057;BME280;48016;50.284;18.860;2023-02-12T15:29:13;100096.81;;;3.56;74.83
62057;BME280;48016;50.284;18.860;2023-02-12T15:31:42;100100.17;;;3.50;74.90
62057;BME280;48016;50.284;18.860;2023-02-12T15:34:19;100104.21;;;3.42;75.18
62057;BME280;48016;50.284;18.860;2023-02-12T15:36:48;100107.59;;;3.31;75.62
62057;BME280;48016;50.284;18.860;2023-02-12T15:39:20;100113.98;;;3.21;75.55
62057;BME280;48016;50.284;18.860;2023-02-12T15:41:48;100111.05;;;3.13;75.69
62057;BME280;48016;50.284;18.860;2023-02-12T15:49:34;100106.95;;;2.88;76.50
62057;BME280;48016;50.284;18.860;2023-02-12T15:52:20;100104.48;;;2.78;76.67
62057;BME280;48016;50.284;18.860;2023-02-12T15:54:48;100098.20;;;2.71;76.47
62057;BME280;48016;50.284;18.860;2023-02-12T15:57:22;100096.45;;;2.64;76.59
62057;BME280;48016;50.284;18.860;2023-02-12T15:59:54;100099.14;;;2.55;77.16
62057;BME280;48016;50.284;18.860;2023-02-12T16:02:27;100106.71;;;2.49;77.27